Tuesday, July 25, 2017, 2:29 AM EDT

KSBY, Salisbury-wicomico Cty Reg

Location: Salisbury, MD, United States Lat: 38.333
Local Time: 2:29 AM EDT ( 6:29 GMT) Lon: -75.5
Time Zone: US/Eastern Elev: 52 ft

Show me the last for .
Show Decoded

2017-07-24 21:49 METAR KSBY 250149Z 20004KT 10SM CLR 24/23 A2987 =
2017-07-24 20:54 METAR KSBY 250054Z 00000KT 10SM CLR 26/23 A2983 =
2017-07-24 19:54 METAR KSBY 242354Z 16004KT 10SM CLR 28/23 A2984 =
2017-07-24 18:50 METAR KSBY 242250Z 24006KT 10SM CLR 28/23 A2983 =
2017-07-24 17:55 METAR KSBY 242155Z 24008KT 10SM FEW040 30/22 A2983 =
2017-07-24 16:55 METAR KSBY 242055Z 29007KT 10SM FEW041 30/21 A2983 =
2017-07-24 15:58 METAR KSBY 241958Z 28008KT 10SM CLR 29/21 A2983 =
2017-07-24 14:54 METAR KSBY 241854Z 27008KT 10SM SCT035 29/23 A2982 =
2017-07-24 13:55 METAR KSBY 241755Z 27009KT 10SM CLR 30/23 A2982 =
2017-07-24 12:55 METAR KSBY 241655Z 24008KT 10SM CLR 29/22 A2982 =
2017-07-24 11:55 METAR KSBY 241555Z 25008KT 10SM FEW024 28/23 A2982 =
2017-07-24 10:55 METAR KSBY 241455Z 27008KT 10SM FEW024 27/23 A2982 =
2017-07-24 09:55 METAR KSBY 241355Z 24011KT 10SM CLR 27/24 A2980 =
2017-07-24 08:55 METAR KSBY 241255Z 24009KT 10SM FEW090 SCT120 26/23 A2980 =
2017-07-24 07:55 METAR KSBY 241155Z 24007KT 10SM FEW095 26/24 A2978 =
2017-07-24 06:55 METAR KSBY 241055Z 21005KT 10SM CLR 24/23 A2976 =
2017-07-24 05:55 METAR KSBY 240955Z 22008KT 10SM FEW049 BKN085 24/23 A2977 =

Support USWX by starting your Amazon purchase here.